KISO/ISO METAR and TAF weather

Enter ICAO airport designator
Station Type Date Time Source
KISO METAR 2019/04/18 10:25 UTC NOAA

KISO 181025Z 20004KT 10SM CLR 15/13 A3006


Station Type Date Time Source
KISO Decoded METAR 2019/04/18 10:25 UTC NOAA

Kinston, Kinston Regional Jetport at Stallings Field, NC, United States (KISO) 35-20N 077-37W
Apr 18, 2019 - 06:25 AM EDT / 2019.04.18 1025 UTC
Wind: from the SSW (200 degrees) at 5 MPH (4 KT):0
Visibility: 10 mile(s):0
Sky conditions: clear
Temperature: 59 F (15 C)
Dew Point: 55 F (13 C)
Relative Humidity: 87%
Pressure (altimeter): 30.06 in. Hg (1017 hPa)
ob: KISO 181025Z 20004KT 10SM CLR 15/13 A3006
cycle: 10

Station Type Date Time Source
KISO TAF 2019/04/18 06:22 UTC NOAA

TAF KISO 180520Z 1806/1906 20006KT P6SM BKN200
FM181600 20013G21KT P6SM SCT025
FM190300 17011KT P6SM BKN150
AMD LTD TO CLD VIS AND WIND

Example: see airport list